Quaker, Kansas
Current Conditions -  °F | °C
As of 10:55 AM on Saturday 22 Nov 2014 (Local Time) from KPTS Reporting Station
Broken Clouds Broken Clouds  
Wind Chill: 58°   Ceiling: 1500
Heat Index: 58°   Visibility: 10mi
Dew Point: 53°   Wind: 17mph
Humidity: 83%   Direction: 200°SSW
Pressure: 29.99"   Gusts: 25mph
Location:  37.1637°N, 94.898°W
Report Text: KPTS 221655Z AUTO 20015G22KT 10SM BKN015 BKN055 15/12 A2999 RMK AO2 LTG DSNT SW T01470119
Loading
Personal Weather Stations






























Interactive Weather Map New forecast layout! Learn more

10-Day Weather Forecast

Advertisements
Track Severe Weather on mobile